Tiempo atmosférico en la estación meteorológica de La Palma Aeropuerto, Santa Cruz de Tenerife (33 m.)



Fecha
DESCASC
Temp. máxima en grados centígrados (hora)
DESCASC
Temp. mínima en grados centígrados (hora)
DESCASC
Temp. media en grados centígrados
DESCASC
Racha de viento máxima en m/sg (hora)
DESCASC
Velocidad máxima media en intervalos de 10 minutos(hora)
DESCASC
Precipitaciones diarias en mm
DESCASC
Precipitaciones de 00:00 a 06:00 en mm
DESCASC
Precipitaciones de 06:00 a 12:00 en mm
DESCASC
Precipitaciones de 12:00 a 18:00 en mm
DESCASC
Precipitaciones de 18:00 a 24:00 en mm
DESCASC
02-04-2020 22.5 (14:30) 15.4 (08:10) 18.9 5 (04:20) 3.89 (04:40) 0 0 0 0 0
01-04-2020 21.8 (15:40) 15.4 (06:50) 18.6 6.11 (01:40) 4.44 (01:40) 0 0 0 0 0
31-03-2020 22.5 (13:20) 17.8 (00:00) 20.1 8.33 (20:10) 6.39 (20:20) 0 0 0 0 0
30-03-2020 22.7 (17:00) 16.1 (07:50) 19.4 5.83 (06:40) 3.89 (06:40) 0 0 0 0 0
29-03-2020 21.2 (13:40) 14.8 (00:00) 18 6.11 (13:00) 4.44 (15:50) 0 0 0 0 0
28-03-2020 20.4 (13:50) 13.3 (00:00) 16.8 7.78 (11:20) 6.39 (11:40) 0 0 0 0 0
27-03-2020 20.4 (10:20) 14.4 (00:00) 17.4 15.28 (17:50) 11.39 (17:50) 0.6 0 0.6 0 0
26-03-2020 21.6 (13:20) 15.1 (00:00) 18.4 10.83 (20:40) 7.78 (17:40) 0.4 0.4 0 0 0
25-03-2020 21.4 (12:50) 15.9 (00:00) 18.6 10.28 (00:30) 6.39 (00:10) 0.1 0 0 0 0.1
24-03-2020 20.6 (12:00) 14.4 (00:00) 17.5 18.06 (13:50) 13.61 (12:40) 0.4 0.4 0 0 0
23-03-2020 21 (14:10) 14.7 (00:00) 17.8 19.72 (10:50) 15.28 (12:20) 0.4 0.1 0.2 0 0.1
22-03-2020 20.5 (12:30) 13.7 (03:50) 17.1 18.06 (20:20) 12.22 (20:10) 0 0 0 0 0
21-03-2020 19.9 (11:20) 16.4 (00:00) 18.1 14.44 (18:30) 11.39 (18:30) 0 0 0 0 0
20-03-2020 21.2 (13:10) 15.5 (00:00) 18.4 12.78 (15:10) 10.56 (15:10) 0.5 0 0.5 0 0
19-03-2020 21.4 (12:10) 16.1 (00:00) 18.8 16.39 (05:10) 12.5 (14:20) 0 0 0 0 0
18-03-2020 20.4 (11:20) 14.3 (00:00) 17.3 16.11 (05:20) 13.33 (21:20) 0.4 0.4 0 0 0
17-03-2020 19.8 (13:40) 14.3 (00:00) 17 16.39 (21:30) 13.33 (21:30) 0.2 0 0.2 0 0
16-03-2020 21.2 (12:50) 17.1 (00:00) 19.2 16.39 (14:30) 12.78 (14:30) 0 0 0 0 0
15-03-2020 20.7 (12:40) 15.1 (00:00) 17.9 16.94 (14:50) 12.22 (22:30) 0.7 0 0.6 0.1 0
14-03-2020 20.9 (12:10) 17.8 (00:00) 19.3 12.5 (23:30) 10.28 (23:30) 0 0 0 0 0
13-03-2020 20.8 (13:10) 18 (02:00) 19.4 10.28 (15:30) 8.33 (15:30) 0 0 0 0 0
12-03-2020 22.1 (13:10) 16.2 (00:00) 19.2 9.17 (20:00) 7.22 (20:00) 0 0 0 0 0
11-03-2020 21.8 (13:30) 15.9 (00:00) 18.8 6.11 (00:10) 5 (19:20) 0 0 0 0 0
10-03-2020 21.9 (14:30) 16.5 (00:00) 19.2 7.78 (07:50) 5.83 (11:20) 0 0 0 0 0
09-03-2020 22 (13:10) 17.1 (00:00) 19.6 8.89 (01:10) 6.39 (13:30) 0 0 0 0 0
08-03-2020 22.4 (12:10) 18 (00:00) 20.2 9.17 (10:30) 7.5 (10:30) 0 0 0 0 0
07-03-2020 21.3 (12:50) 16.8 (00:00) 19 10.83 (00:20) 8.06 (13:10) 0 0 0 0 0
06-03-2020 21 (14:30) 16.5 (00:00) 18.8 13.33 (06:40) 10.83 (06:40) 1.3 1.3 0 0 0
05-03-2020 21.7 (12:20) 17.6 (00:00) 19.7 13.33 (11:20) 10 (11:30) 0.1 0 0 0 0.1

Gráficas

Temp. máximas Temp. mínimas Temp. medias Precipitaciones Rachas de viento máximas Velocidades máximas media en intervalos de 10 minutos

Datos horarios

Fecha y hora oficial Temperatura (ºC) Velocidad del viento (km/h) Dirección del viento Racha (km/h) Dirección de racha Precipitación (mm) Presión (hPa) Tendencia (hPa) Humedad (%)
2020-04-03 23:00:00 19.9 9 Oeste 15 Noroeste 0 1004.9 2 75
2020-04-03 22:00:00 19.6 8 Oeste 17 Sudoeste 0 1004.1 1.7 77
2020-04-03 21:00:00 19.9 9 Sudeste 22 Nordeste 0.3 1003.2 0.8 78
2020-04-03 20:00:00 20.8 10 Sur 41 Sur 0.9 1002.9 0.1 80
2020-04-03 19:00:00 20.4 33 Sur 54 Sur 0.8 1002.4 -1.2 88
2020-04-03 18:00:00 19.8 44 Sur 61 Sur 1 1002.4 -2 92
2020-04-03 17:00:00 19.5 40 Sur 55 Sur 1.6 1002.8 -1.7 93
2020-04-03 16:00:00 19.9 40 Sur 54 Sur 0.1 1003.6 -1.7 87
2020-04-03 15:00:00 21.9 42 Sur 59 Sur 0 1004.4 -1.8 71
2020-04-03 14:00:00 21.6 30 Sur 50 Sur 0 1004.5 -1.9 68
2020-04-03 13:00:00 21.2 22 Sudeste 45 Sudeste 0 1005.3 -0.8 71
2020-04-03 12:00:00 21.1 24 Sudeste 41 Sur 0 1006.2 0.8 69
2020-04-03 11:00:00 20.2 9 Norte 17 Nordeste 0 1006.4 0.7 67
2020-04-03 10:00:00 20 7 Sudoeste 28 Este 0 1006.1 -0.2 62
2020-04-03 09:00:00 18.7 5 Noroeste 33 Norte 0 1005.4 -1.3 68
2020-04-03 08:00:00 17.5 18 Oeste 26 Oeste 0 1005.7 -1.3 68
2020-04-03 07:00:00 18.1 15 Sur 28 Sur 0 1006.3 -1.5 73
2020-04-03 06:00:00 18.1 15 Sur 24 Sur 0 1006.7 -1.6 73
2020-04-03 05:00:00 18.3 17 Sur 26 Sur 0 1007 -2.4 74
2020-04-03 04:00:00 17.7 12 Sudoeste 21 Sudoeste 0 1007.8 -2.6 69
2020-04-03 03:00:00 17.8 9 Sudoeste 15 Sudoeste 0 1008.3 -2.7 69
2020-04-03 02:00:00 18.1 9 Sudoeste -- -- -- 1009.4 -2 67
2020-04-03 01:00:00 17.5 11 Sudoeste 17 Sudoeste 0 1010.4 -0.6 70
2020-04-03 00:00:00 18.2 10 Sudoeste 13 Sudoeste 0 1011 0.1 69
2020-04-02 23:00:00 18.7 8 Sudoeste 17 Sur 0 1011.4 0.8 70
2020-04-02 22:00:00 19.2 11 Sudeste 17 Sudeste 0 1011 0.3 71
2020-04-02 21:00:00 19.2 9 Sudeste 15 Sudeste 0 1010.9 0.3 73
2020-04-02 20:00:00 19.4 11 Sudeste 17 Sudeste 0 1010.6 -0.2 71
2020-04-02 19:00:00 19.8 9 Sudeste 17 Sudeste 0 1010.7 -0.5 67
2020-04-02 18:00:00 20.3 9 Sudeste 17 Este 0 1010.6 -1.7 65
2020-04-02 17:00:00 20.8 11 Sudeste 18 Este 0 1010.8 -2 62
2020-04-02 16:00:00 21.8 12 Este 17 Este 0 1011.2 -2.2 61
2020-04-02 15:00:00 21.8 12 Este 17 Este 0 1012.3 -1.4 61
2020-04-02 14:00:00 21.8 13 Este 18 Sudeste 0 1012.8 -0.8 60
2020-04-02 13:00:00 21.4 13 Sudeste 17 Sudeste 0 1013.4 0.8 62
2020-04-02 12:00:00 20.7 8 Este 13 Este 0 1013.7 1.6 64
2020-04-02 11:00:00 20.4 5 Este 9 Este 0 1013.6 2.3 64
2020-04-02 10:00:00 19.9 4 Norte 11 Norte 0 1012.6 1.6 63
2020-04-02 09:00:00 18.1 10 Oeste 15 Oeste 0 1012.1 1.3 58
2020-04-02 08:00:00 15.5 13 Oeste 15 Oeste 0 1011.3 0.3 75
2020-04-02 07:00:00 16.1 12 Oeste 17 Oeste 0 1011 -0.4 75
2020-04-02 06:00:00 16.4 14 Oeste 18 Oeste 0 1010.8 -1.2 73
2020-04-02 05:00:00 16.4 13 Oeste 18 Oeste 0 1011 -1.9 70
2020-04-02 04:00:00 16.4 13 Oeste 17 Oeste 0 1011.4 -2 66
2020-04-02 03:00:00 16.2 9 Oeste 13 Oeste 0 1012 -1.6 73
2020-04-02 02:00:00 17 11 Oeste -- -- -- 1012.9 -0.3 71
2020-04-02 01:00:00 17.4 12 Oeste 17 Oeste 0 1013.4 0.8 71
2020-04-02 00:00:00 17.6 9 Oeste 13 Oeste 0 1013.6 1.4 71
2020-04-01 23:00:00 18.5 9 Oeste 11 Oeste 0 1013.2 1.5 71
2020-04-01 22:00:00 19.1 7 Noroeste 11 Noroeste 0 1012.6 1.1 70
2020-04-01 21:00:00 19.2 10 Norte 15 Norte 0 1012.2 0.8 70
2020-04-01 20:00:00 19.8 9 Norte 13 Norte 0 1011.7 0.4 68
2020-04-01 19:00:00 19.9 5 Nordeste 11 Nordeste 0 1011.5 0.3 67
2020-04-01 18:00:00 20 6 Nordeste 11 Nordeste 0 1011.4 -0.3 67
2020-04-01 17:00:00 20 7 Este 15 Este 0 1011.3 -1 66
2020-04-01 16:00:00 21.1 9 Este 15 Este 0 1011.2 -1.6 62
2020-04-01 15:00:00 21.2 10 Este 13 Este 0 1011.7 -1.2 61
2020-04-01 14:00:00 20 6 Nordeste 13 Nordeste 0 1012.3 -0.5 65
2020-04-01 13:00:00 21 8 Nordeste 15 Nordeste 0 1012.8 0.2 63
2020-04-01 12:00:00 20.2 9 Nordeste 13 Nordeste 0 1012.9 0.9 65
2020-04-01 11:00:00 20 6 Nordeste 11 Nordeste 0 1012.8 1.5 66
2020-04-01 10:00:00 20 7 Nordeste 9 Norte 0 1012.6 1.5 63
2020-04-01 09:00:00 18 6 Noroeste 13 Oeste 0 1012 1.4 60
2020-04-01 08:00:00 15.8 12 Oeste 15 Oeste 0 1011.3 0.4 67
2020-04-01 07:00:00 15.4 8 Oeste 15 Oeste 0 1011.1 -0.1 73
2020-04-01 06:00:00 16.1 10 Oeste 15 Oeste 0 1010.6 -1 73
2020-04-01 05:00:00 16.7 9 Oeste 13 Oeste 0 1010.9 -0.5 73
2020-04-01 04:00:00 16.7 8 Oeste 11 Oeste 0 1011.2 -0.7 74
2020-04-01 03:00:00 16.6 10 Sudoeste 17 Sudoeste 0 1011.6 0 73
2020-04-01 02:00:00 17.7 8 Sudoeste 22 Nordeste 0 1011.4 -0.4 71
2020-04-01 01:00:00 18.6 8 Norte 21 Norte 0 1011.9 0.8 67
2020-04-01 00:00:00 18 11 Sudoeste 15 Oeste 0 1011.6 1.2 69
2020-03-31 23:00:00 18.9 12 Norte 24 Norte 0 1011.8 2 72
2020-03-31 22:00:00 19.3 16 Norte 26 Nordeste 0 1011.1 1.5 73
2020-03-31 21:00:00 19.5 19 Norte 30 Norte 0 1010.4 0.8 72
2020-03-31 20:00:00 20 18 Norte 22 Norte 0 1009.8 0.4 70
2020-03-31 19:00:00 20.1 5 Este 15 Este 0 1009.6 -0.1 65
2020-03-31 18:00:00 20.3 8 Nordeste 17 Nordeste 0 1009.6 -0.2 65
2020-03-31 17:00:00 20.5 6 Nordeste 17 Nordeste 0 1009.4 -0.5 63
2020-03-31 16:00:00 20.8 9 Nordeste 21 Sudeste 0 1009.7 -0.1 63
2020-03-31 15:00:00 22.2 14 Sudeste 24 Sudeste 0 1009.8 0.2 60
2020-03-31 14:00:00 21.7 15 Sudeste 22 Sudeste 0 1009.9 0.7 60
2020-03-31 13:00:00 21.9 15 Sudeste 22 Sudeste 0 1009.8 1.1 63
2020-03-31 12:00:00 20.9 11 Este 15 Este 0 1009.6 1.1 68
2020-03-31 11:00:00 20.8 10 Este 15 Este 0 1009.2 1.2 69
2020-03-31 10:00:00 21 9 Sudeste 13 Sudeste 0 1008.7 1.1 69
2020-03-31 09:00:00 19.1 4 Sudoeste 13 Oeste 0 1008.5 1.1 71
2020-03-31 08:00:00 17.9 10 Sudoeste 13 Sudoeste 0 1008 0.5 72
2020-03-31 07:00:00 18.3 9 Sudoeste 13 Sudoeste 0 1007.6 0 74
2020-03-31 06:00:00 18.4 7 Sudoeste 11 Sudoeste 0 1007.4 -0.6 75
2020-03-31 05:00:00 18.2 8 Sudoeste 15 Sur 0 1007.5 -0.9 76
2020-03-31 04:00:00 18 8 Sudoeste 15 Sur 0 1007.6 -1.1 74
2020-03-31 03:00:00 18.4 9 Sudoeste 17 Oeste 0 1008 -1.2 74
2020-03-31 02:00:00 18.3 8 Sudoeste 11 Sudoeste 0 1008.4 -0.9 74
2020-03-31 01:00:00 18.6 5 Sudoeste 13 Sudoeste 0 1008.7 -0.3 72
2020-03-31 00:00:00 19.4 10 Sur 13 Sur 0 1009.2 0.5 73
2020-03-30 23:00:00 19.7 9 Sudeste 13 Sudeste 0 1009.3 0.9 76
2020-03-30 22:00:00 19.9 9 Sudeste 13 Sudeste 0 1009 0.8 74
2020-03-30 21:00:00 20.1 9 Este 11 Este 0 1008.7 0.5 72
2020-03-30 20:00:00 20.4 6 Este 9 Este 0 1008.4 -0.1 69
2020-03-30 19:00:00 20.4 4 Este 9 Este 0 1008.2 -0.8 68
2020-03-30 18:00:00 20.7 5 Este 11 Este 0 1008.2 -1.6 66
2020-03-30 17:00:00 21.5 9 Este 13 Este 0 1008.5 -1.9 62
2020-03-30 16:00:00 21.8 9 Este 15 Este 0 1009 -1.7 61
2020-03-30 15:00:00 21.3 8 Este 13 Nordeste 0 1009.8 -1.4 62
2020-03-30 14:00:00 21.1 7 Nordeste 13 Nordeste 0 1010.4 -0.4 64
2020-03-30 13:00:00 21.4 8 Nordeste 15 Norte 0 1010.7 0 62
2020-03-30 12:00:00 21.2 10 Norte 15 Nordeste 0 1011.2 0.5 63
2020-03-30 11:00:00 20.8 6 Norte 11 Norte 0 1010.8 0.2 61
2020-03-30 10:00:00 20 7 Norte 13 Norte 0 1010.7 0.5 63
2020-03-30 09:00:00 17.2 10 Oeste 13 Oeste 0 1010.7 0.5 73
2020-03-30 08:00:00 16.1 9 Oeste 15 Sudoeste 0 1010.6 0.2 74
2020-03-30 07:00:00 16.6 10 Oeste 21 Sudoeste 0 1010.2 -0.9 72
2020-03-30 06:00:00 16.8 13 Sudoeste 17 Sudoeste 0 1010.2 -1.6 71
2020-03-30 05:00:00 17.8 12 Sudoeste 15 Sudoeste 0 1010.4 -2 68
2020-03-30 04:00:00 18.4 9 Sudeste 13 Este 0 1011.1 -1.8 72
2020-03-30 03:00:00 18.6 6 Sudeste 13 Oeste 0 1011.8 -1.3 71
2020-03-30 02:00:00 18 10 Sudoeste 13 Sudoeste 0 1012.4 -0.8 68
2020-03-30 01:00:00 18.4 5 Sur 13 Sudoeste 0 1012.9 -0.1 71
2020-03-30 00:00:00 18.1 4 Sudoeste 9 Sudoeste 0 1013.1 0.6 71
2020-03-29 23:00:00 18.7 2 Este 9 Nordeste 0 1013.2 0.8 72
2020-03-29 22:00:00 18.7 5 Nordeste 11 Nordeste 0 1013 0.3 72
2020-03-29 21:00:00 19 8 Norte 13 Norte 0 1012.5 -0.3 71
2020-03-29 20:00:00 19.3 9 Norte 15 Nordeste 0 1012.4 -0.6 70
2020-03-29 19:00:00 19.7 8 Norte 13 Nordeste 0 1012.7 -0.6 69
2020-03-29 18:00:00 19.4 7 Nordeste 17 Este 0 1012.8 -1.5 69
2020-03-29 17:00:00 19.8 11 Este 21 Este 0 1013 -2 67
2020-03-29 16:00:00 20.1 16 Sudeste 22 Sudeste 0 1013.3 -1.9 67
2020-03-29 15:00:00 20.1 13 Sudeste 22 Sudeste 0 1014.3 -1 65
2020-03-29 14:00:00 20.2 13 Sudeste 21 Sudeste 0 1015 0.1 62
2020-03-29 13:00:00 20.7 13 Este 22 Sudeste 0 1015.2 0.7 58
2020-03-29 12:00:00 20.4 13 Sudeste 18 Sudeste 0 1015.3 1.1 60
2020-03-29 11:00:00 20 10 Sudeste 15 Sudeste 0 1014.9 0.9 60
2020-03-29 10:00:00 19.6 6 Este 11 Sudeste 0 1014.5 0.9 60
2020-03-29 09:00:00 17.3 7 Oeste 17 Oeste 0 1014.2 0.7 63
2020-03-29 08:00:00 15.1 14 Sudoeste 21 Oeste 0 1014 0.4 68
2020-03-29 07:00:00 15 14 Sudoeste 18 Sudoeste 0 1013.6 -0.4 71
2020-03-29 06:00:00 15.2 13 Oeste 15 Oeste 0 1013.5 -1.1 69
2020-03-29 05:00:00 15.2 13 Oeste 17 Oeste 0 1013.6 -1.7 68
2020-03-29 04:00:00 15.5 12 Sudoeste 17 Oeste 0 1014 -1.5 72
2020-03-29 00:00:00 16.2 12 Oeste 15 Sudoeste 0 1015.5 0.9 69
2020-03-28 23:00:00 16.9 11 Oeste 15 Oeste 0 1015.5 1.5 67
2020-03-28 22:00:00 17.4 8 Oeste 13 Oeste 0 1015.3 1.5 67
2020-03-28 21:00:00 18.2 3 Nordeste 8 Norte 0 1014.6 1.2 65
2020-03-28 20:00:00 18.3 0 Calma 9 Este 0 1014 1.1 65
2020-03-28 19:00:00 18.5 5 Este 11 Este 0 1013.8 1.1 64
2020-03-28 18:00:00 18.7 9 Nordeste 17 Nordeste 0 1013.4 0.7 65
2020-03-28 17:00:00 18.9 11 Nordeste 21 Nordeste 0 1012.9 0.1 65
2020-03-28 16:00:00 19.2 14 Nordeste 21 Nordeste 0 1012.7 -0.6 63
2020-03-28 15:00:00 20 12 Nordeste 24 Nordeste 0 1012.7 -0.7 59
2020-03-28 14:00:00 19.9 17 Nordeste 24 Nordeste 0 1012.8 -0.8 60
2020-03-28 13:00:00 19.8 17 Nordeste 28 Nordeste 0 1013.3 -0.1 61
2020-03-28 12:00:00 20.1 21 Nordeste 28 Nordeste 0 1013.4 0.4 58
2020-03-28 11:00:00 19.5 20 Nordeste 26 Nordeste 0 1013.6 1.2 61
2020-03-28 10:00:00 19.4 6 Nordeste 11 Nordeste 0 1013.4 1.7 55
2020-03-28 09:00:00 18.3 4 Nordeste 8 Nordeste 0 1013 1.7 50
2020-03-28 08:00:00 15.9 3 Sudoeste 9 Oeste 0 1012.4 1.4 58
2020-03-28 07:00:00 13.8 6 Oeste 15 Oeste 0 1011.7 0.7 64
2020-03-28 06:00:00 13.4 6 Oeste 11 Oeste 0 1011.3 0.4 68
2020-03-28 05:00:00 14.5 12 Sudoeste 17 Sudoeste 0 1011 0.1 64
2020-03-28 04:00:00 14.3 12 Oeste 17 Oeste 0 1011 -0.3 63
2020-03-28 03:00:00 14.4 12 Oeste 15 Oeste 0 1010.9 -0.6 64
2020-03-28 02:00:00 15.3 10 Sudoeste 18 Sudoeste 0 1010.9 -0.6 61
2020-03-28 01:00:00 15 13 Oeste 17 Sudoeste 0 1011.3 0.2 66
2020-03-28 00:00:00 15.4 7 Oeste 17 Oeste 0 1011.5 1 68
2020-03-27 23:00:00 16.1 8 Oeste 13 Oeste 0 1011.5 2 68
2020-03-27 22:00:00 16.1 8 Noroeste 15 Noroeste 0 1011.1 2 71
2020-03-27 21:00:00 16.6 3 Sur 18 Sur 0 1010.5 1.6 71
2020-03-27 20:00:00 17.7 11 Sur 17 Sudeste 0 1009.5 1 70
2020-03-27 19:00:00 17.5 10 Sudoeste 48 Nordeste 0 1009.1 0.5 73
2020-03-27 18:00:00 17 35 Norte 55 Nordeste 0 1008.9 -0.1 81
2020-03-27 17:00:00 18.4 6 Norte 39 Nordeste 0 1008.5 -0.9 71
2020-03-27 16:00:00 18.6 17 Norte 30 Norte 0 1008.6 -1.4 74
2020-03-27 15:00:00 19.7 12 Este 17 Este 0 1009 -1.5 66
2020-03-27 14:00:00 19.2 9 Noroeste 15 Norte 0 1009.4 -1.2 66
2020-03-27 13:00:00 19.2 5 Norte 11 Norte 0 1010 -0.2 69
2020-03-27 12:00:00 19.3 6 Este 13 Este 0.6 1010.5 0.8 74
2020-03-27 11:00:00 19.1 9 Sudeste 17 Sudeste 0 1010.6 1.4 67
2020-03-27 10:00:00 19.7 11 Sudeste 18 Sudeste 0 1010.2 1.2 65
2020-03-27 09:00:00 18.8 12 Sudeste 18 Sur 0 1009.7 0.9 67
2020-03-27 08:00:00 16.6 6 Sur 15 Sudoeste 0 1009.2 0.4 67
2020-03-27 07:00:00 14.6 10 Sudoeste 17 Sudoeste 0 1009 -0.1 71
2020-03-27 06:00:00 14.8 14 Sudoeste 17 Sudoeste 0 1008.8 -0.5 73
2020-03-27 05:00:00 15 10 Sudoeste 15 Sudoeste 0 1008.8 -1.2 74
2020-03-27 04:00:00 15.1 8 Oeste 13 Oeste 0 1009.1 -1.3 74
2020-03-27 03:00:00 15.4 10 Sudoeste 15 Sudoeste 0 1009.3 -1.3 75
2020-03-27 02:00:00 15.9 8 Sudoeste 11 Sudoeste 0 1010 -0.7 74
2020-03-27 01:00:00 16.2 6 Oeste 13 Noroeste 0 1010.4 0.1 72
2020-03-27 00:00:00 16.5 9 Sudoeste 13 Sudoeste 0 1010.6 0.5 70
2020-03-26 23:00:00 16.9 6 Oeste 26 Noroeste 0 1010.7 0.9 70
2020-03-26 22:00:00 17.4 9 Noroeste 32 Norte 0 1010.3 0.6 67
2020-03-26 21:00:00 18 20 Norte 39 Norte 0 1010.1 0.5 68
2020-03-26 20:00:00 18.2 24 Norte 33 Nordeste 0 1009.8 0.3 69
2020-03-26 19:00:00 18.5 27 Norte 35 Nordeste 0 1009.7 -0.1 68
2020-03-26 18:00:00 18.8 28 Norte 35 Norte 0 1009.6 -0.6 69
2020-03-26 17:00:00 19.1 25 Nordeste 32 Nordeste 0 1009.5 -1.2 68
2020-03-26 16:00:00 20 19 Nordeste 24 Nordeste 0 1009.8 -1.5 64
2020-03-26 15:00:00 20.8 13 Norte 21 Nordeste 0 1010.2 -1.8 58
2020-03-26 14:00:00 21.1 12 Norte 18 Norte 0 1010.7 -1.2 57
2020-03-26 13:00:00 21.1 12 Norte 17 Norte 0 1011.3 -0.4 55
2020-03-26 12:00:00 20.5 12 Norte 21 Nordeste 0 1012 0.7 60
2020-03-26 11:00:00 20.5 16 Nordeste 22 Nordeste 0 1011.9 1 60
2020-03-26 10:00:00 20 15 Norte 21 Norte 0 1011.7 1.1 65
2020-03-26 09:00:00 17.7 7 Noroeste 11 Noroeste 0 1011.3 1.1 64
2020-03-26 08:00:00 15.8 10 Oeste 18 Oeste 0 1010.9 0.8 71
2020-03-26 07:00:00 15.2 13 Oeste 17 Oeste 0 1010.6 0.1 70
2020-03-26 06:00:00 15.6 13 Oeste 18 Oeste 0 1010.2 -0.6 68
2020-03-26 05:00:00 16.1 12 Oeste 17 Oeste 0 1010.1 -1.5 69
2020-03-26 04:00:00 16.2 14 Oeste 18 Noroeste 0 1010.5 -1.5 72
2020-03-26 03:00:00 15.9 14 Oeste 26 Oeste 0 1010.8 -1.7 75
2020-03-26 02:00:00 15.8 15 Oeste 24 Noroeste 0.3 1011.6 -0.9 78
2020-03-26 01:00:00 16.8 10 Oeste 18 Oeste 0.1 1012 -0.6 72
2020-03-26 00:00:00 16.8 14 Oeste 21 Oeste 0 1012.5 0.5 71
2020-03-25 23:00:00 17 13 Oeste 18 Oeste 0 1012.5 0.7 73
2020-03-25 22:00:00 16.9 10 Oeste 17 Oeste 0.1 1012.6 1 73
2020-03-25 21:00:00 17.5 12 Oeste 22 Oeste 0 1012 0.2 67
2020-03-25 20:00:00 17.6 11 Oeste 22 Noroeste 0 1011.8 0 68
2020-03-25 19:00:00 17.1 18 Oeste 32 Oeste 0 1011.6 -0.3 74
2020-03-25 18:00:00 18.4 11 Norte 17 Norte 0 1011.8 -0.7 72
2020-03-25 17:00:00 19.1 11 Nordeste 17 Nordeste 0 1011.8 -0.8 66
2020-03-25 16:00:00 19.3 12 Nordeste 17 Nordeste 0 1011.9 -1.2 67
2020-03-25 15:00:00 20.2 12 Nordeste 18 Nordeste 0 1012.5 -0.8 61
2020-03-25 14:00:00 20.2 12 Nordeste 21 Nordeste 0 1012.6 -1 61
2020-03-25 13:00:00 20.7 13 Norte 17 Nordeste 0 1013.1 -0.4 61
2020-03-25 12:00:00 20.2 11 Norte 15 Norte 0 1013.3 0.5 62
2020-03-25 11:00:00 19.2 6 Norte 15 Nordeste 0 1013.6 1 63
2020-03-25 10:00:00 18.7 7 Norte 15 Nordeste 0 1013.5 1.4 64
2020-03-25 09:00:00 18.4 10 Nordeste 17 Nordeste 0 1012.8 1.2 58
2020-03-25 08:00:00 17.7 7 Oeste 17 Oeste 0 1012.6 1.2 52
2020-03-25 07:00:00 16.4 8 Sudoeste 17 Norte 0 1012.1 0.5 58
2020-03-25 06:00:00 17.3 10 Norte 26 Norte 0 1011.6 -0.3 62
2020-03-25 05:00:00 17 21 Norte 28 Norte 0 1011.4 -0.9 73
2020-03-25 04:00:00 17.4 16 Norte 24 Norte 0 1011.6 -1.2 70
2020-03-25 03:00:00 17.2 18 Noroeste 33 Norte 0 1011.9 -1.1 71
2020-03-25 02:00:00 17.4 11 Noroeste 37 Oeste 0 1012.3 -1.1 63
2020-03-25 01:00:00 17.3 10 Norte 37 Norte 0 1012.8 -0.6 61
2020-03-25 00:00:00 17.7 27 Norte 37 Norte 0 1013 -0.2 70
2020-03-24 23:00:00 17.5 17 Norte 45 Nordeste 0 1013.4 1.1 66
2020-03-24 22:00:00 17.2 8 Noroeste 35 Nordeste 0 1013.4 1.6 63
2020-03-24 21:00:00 17.5 10 Sur 30 Nordeste 0 1013.2 1.9 61
2020-03-24 20:00:00 18.7 21 Nordeste 41 Nordeste 0 1012.3 0.9 60
2020-03-24 19:00:00 19.1 11 Nordeste 48 Nordeste 0 1011.8 0.3 58
2020-03-24 18:00:00 18.8 35 Nordeste 55 Nordeste 0 1011.3 -0.6 70
2020-03-24 17:00:00 19 45 Nordeste 65 Norte 0 1011.4 -0.6 68
2020-03-24 16:00:00 18.8 45 Nordeste 58 Nordeste 0 1011.5 -0.9 74
2020-03-24 15:00:00 19.2 40 Nordeste 59 Nordeste 0 1011.9 -1 73
2020-03-24 14:00:00 19.4 45 Nordeste 65 Nordeste 0 1012 -1.2 66
2020-03-24 13:00:00 20.1 46 Norte 59 Norte 0 1012.4 -0.4 62
2020-03-24 12:00:00 20.4 44 Norte 58 Norte 0 1012.9 0.4 57
2020-03-24 11:00:00 19.2 37 Nordeste 55 Norte 0 1013.2 1 72
2020-03-24 10:00:00 19.7 25 Norte 46 Norte 0 1012.8 0.7 63
2020-03-24 09:00:00 18.2 4 Norte 9 Sur 0 1012.5 0.8 65
2020-03-24 08:00:00 15.7 8 Sudoeste 17 Oeste 0 1012.2 0.1 71
2020-03-24 07:00:00 15 7 Oeste 15 Sudoeste 0 1012.1 0.4 77
2020-03-24 06:00:00 16.1 10 Norte 21 Norte 0 1011.7 -0.1 80
2020-03-24 05:00:00 15.4 8 Noroeste 52 Norte 0.4 1012.1 0 89
2020-03-24 04:00:00 16.2 4 Oeste 15 Sudoeste 0 1011.7 -0.7 68
2020-03-24 03:00:00 16.8 6 Noroeste 30 Norte 0 1011.8 -0.4 68
2020-03-24 02:00:00 17 11 Norte 33 Norte 0 1012.1 -0.1 68
2020-03-24 01:00:00 17.6 20 Norte 41 Norte 0 1012.4 0.5 73
2020-03-24 00:00:00 17.9 29 Norte 39 Norte 0 1012.2 1.1 71
2020-03-23 23:00:00 17.9 21 Norte 52 Norte 0.1 1012.2 1.9 64
2020-03-23 22:00:00 18.3 31 Norte 48 Norte 0 1011.9 2 64
2020-03-23 21:00:00 18.2 37 Norte 54 Norte 0 1011.1 1.6 60
2020-03-23 20:00:00 18.1 44 Norte 61 Norte 0 1010.3 1 61
2020-03-23 19:00:00 18.1 43 Norte 55 Norte 0 1009.9 0.9 69
2020-03-23 18:00:00 19.1 45 Norte 54 Norte 0 1009.5 0 61
2020-03-23 17:00:00 19.8 36 Norte 50 Norte 0 1009.3 -0.2 57
2020-03-23 16:00:00 20.4 35 Norte 54 Norte 0 1009 -0.5 52
2020-03-23 15:00:00 20.5 35 Norte 61 Norte 0 1009.5 -0.2 54
2020-03-23 14:00:00 20.5 39 Norte 65 Norte 0 1009.5 0.4 53
2020-03-23 13:00:00 20.5 48 Norte 67 Norte 0 1009.5 0.9 55
2020-03-23 12:00:00 20.4 48 Norte 68 Norte 0 1009.7 1.7 56
2020-03-23 11:00:00 20.4 39 Norte 71 Norte 0 1009.1 1.3 49
2020-03-23 10:00:00 19.1 44 Norte 63 Norte 0 1008.6 1.3 56
2020-03-23 09:00:00 18.3 40 Norte 65 Norte 0.1 1008 1.2 64
2020-03-23 08:00:00 16.6 36 Norte 65 Norte 0 1007.8 1.3 70
2020-03-23 07:00:00 15.2 14 Oeste 58 Norte 0.1 1007.3 0.8 72
2020-03-23 06:00:00 17.1 32 Norte 52 Noroeste 0 1006.8 -0.4 62
2020-03-23 05:00:00 16.8 31 Norte 50 Norte 0 1006.5 -0.7 60
2020-03-23 04:00:00 15.5 13 Oeste 37 Noroeste 0 1006.5 -1.3 62
2020-03-23 03:00:00 15.2 11 Sudoeste 33 Norte 0.1 1007.2 -1 70
2020-03-23 02:00:00 15.9 14 Sudoeste 21 Sudoeste 0 1007.2 -1.8 64
2020-03-23 01:00:00 15.8 12 Oeste 35 Norte 0 1007.8 -1.3 64
2020-03-23 00:00:00 16.6 13 Sur 21 Sudoeste 0 1008.2 -0.7 58
2020-03-22 23:00:00 16.8 8 Norte 21 Norte 0 1009 0.5 64
2020-03-22 22:00:00 17.4 11 Norte 22 Nordeste 0 1009.1 0.8 60
2020-03-22 21:00:00 17.5 16 Norte 65 Norte 0 1008.9 0.7 61
2020-03-22 20:00:00 17.6 6 Sudoeste 21 Sur 0 1008.5 0 67
2020-03-22 19:00:00 18.5 14 Este 24 Este 0 1008.3 -0.4 66
2020-03-22 18:00:00 18.4 9 Este 15 Este 0 1008.2 -1.4 68
2020-03-22 17:00:00 18.9 9 Este 30 Sudeste 0 1008.5 -1.7 65
2020-03-22 16:00:00 19.1 13 Este 22 Sudeste 0 1008.7 -2.3 63
2020-03-22 15:00:00 17.9 9 Norte 30 Nordeste 0 1009.6 -2.4 67
2020-03-22 14:00:00 19.7 14 Este 26 Sudeste 0 1010.2 -2.3 57
2020-03-22 13:00:00 19.4 18 Sudeste 26 Sudeste 0 1011 -2.1 56
2020-03-22 12:00:00 19.9 18 Sudeste 30 Sudeste 0 1012 -1.4 54
2020-03-22 11:00:00 20 16 Sudeste 26 Sur 0 1012.5 -0.6 54
2020-03-22 10:00:00 19.4 14 Sudeste 22 Sudeste 0 1013.1 0.2 55
2020-03-22 09:00:00 18.6 12 Sudeste 17 Sudeste 0 1013.4 0.6 57
2020-03-22 08:00:00 16.2 11 Sudoeste 24 Sudoeste 0 1013.1 0 61
2020-03-22 07:00:00 14.1 16 Sudoeste 22 Sudoeste 0 1012.9 -0.4 66
2020-03-22 06:00:00 14.4 17 Sudoeste 26 Sudoeste 0 1012.8 -1.5 67
2020-03-22 05:00:00 15.1 4 Oeste 21 Sudoeste 0 1013.1 -2 63
2020-03-22 04:00:00 14.7 15 Sudoeste 21 Sudoeste 0 1013.3 -2.4 62
2020-03-22 03:00:00 15.2 8 Sudoeste 17 Oeste 0 1014.3 -1.6 59
2020-03-22 02:00:00 16.6 5 Este 17 Oeste 0 1015.1 -1.1 59
2020-03-22 01:00:00 16.6 12 Noroeste 46 Norte 0 1015.7 -0.6 60
2020-03-22 00:00:00 17.3 32 Norte 50 Norte 0 1015.9 -0.2 64
2020-03-21 23:00:00 17.4 30 Norte 45 Norte 0 1016.2 0.4 65
2020-03-21 22:00:00 17.5 28 Norte 46 Norte 0 1016.3 0.9 52
2020-03-21 21:00:00 17.3 34 Norte 46 Norte 0 1016.1 0.9 61
2020-03-21 20:00:00 17.4 34 Norte 46 Norte 0 1015.8 0.6 59
2020-03-21 19:00:00 17.6 39 Norte 52 Norte 0 1015.4 -0.1 61
2020-03-21 18:00:00 17.9 39 Norte 50 Norte 0 1015.2 -0.9 62
2020-03-21 17:00:00 18.1 37 Norte 50 Nordeste 0 1015.2 -1.7 62
2020-03-21 16:00:00 18.4 38 Norte 48 Norte 0 1015.5 -2.3 60
2020-03-21 15:00:00 18.8 32 Norte 46 Norte 0 1016.1 -2.2 56
2020-03-21 14:00:00 18.9 31 Norte 41 Nordeste 0 1016.9 -1.5 57
2020-03-21 13:00:00 19.2 26 Norte 35 Norte 0 1017.8 -0.5 55
2020-03-21 12:00:00 19.2 23 Nordeste 30 Nordeste 0 1018.3 0.4 52
2020-03-21 11:00:00 19.5 17 Norte 28 Norte 0 1018.4 1.1 44
2020-03-21 10:00:00 17.7 14 Noroeste 28 Norte 0 1018.3 1.3 54
2020-03-21 09:00:00 17.1 17 Noroeste 24 Noroeste 0 1017.9 1.3 56
2020-03-21 08:00:00 17 15 Noroeste 26 Noroeste 0 1017.3 0.9 54
2020-03-21 07:00:00 16.7 18 Noroeste 28 Noroeste 0 1017 0.7 56
2020-03-21 06:00:00 16.9 15 Norte 26 Noroeste 0 1016.6 0.2 56
2020-03-21 05:00:00 16.9 14 Noroeste 35 Nordeste 0 1016.4 -0.3 53
2020-03-21 04:00:00 17.3 25 Norte 37 Norte 0 1016.3 -0.8 58
2020-03-21 03:00:00 17.5 28 Norte 37 Norte 0 1016.4 -1 63
2020-03-21 02:00:00 17.4 19 Norte 32 Norte 0 1016.7 -0.9 64
2020-03-21 01:00:00 16.7 17 Noroeste 28 Noroeste 0 1017.1 -0.4 65
2020-03-21 00:00:00 16.4 12 Noroeste 22 Norte 0 1017.4 0.3 61
2020-03-20 23:00:00 16.9 11 Norte 26 Norte 0 1017.6 1.2 63
2020-03-20 22:00:00 17.2 19 Norte 35 Nordeste 0 1017.5 1.6 69
2020-03-20 21:00:00 17.5 25 Norte 33 Norte 0 1017.1 1.4 68
2020-03-20 20:00:00 17.6 27 Norte 41 Norte 0 1016.4 0.7 69
2020-03-20 19:00:00 18 31 Norte 42 Nordeste 0 1015.9 0.3 70
2020-03-20 18:00:00 18.1 31 Norte 41 Norte 0 1015.7 -0.3 71
2020-03-20 17:00:00 18.7 28 Norte 39 Norte 0 1015.7 -0.8 71
2020-03-20 16:00:00 18 30 Nordeste 46 Nordeste 0 1015.6 -1.5 79
2020-03-20 15:00:00 19.1 32 Nordeste 42 Nordeste 0 1016 -1.1 73
2020-03-20 14:00:00 19.9 24 Nordeste 30 Nordeste 0 1016.5 -0.3 66
2020-03-20 13:00:00 20.9 22 Norte 37 Nordeste 0 1017.1 0.5 63
2020-03-20 12:00:00 19.7 33 Nordeste 41 Nordeste 0 1017.1 0.8 66
2020-03-20 11:00:00 19.5 35 Norte 42 Nordeste 0 1016.8 1.6 68
2020-03-20 10:00:00 18.9 31 Norte 39 Norte 0 1016.6 2.2 73
2020-03-20 09:00:00 18 21 Norte 32 Norte 0.1 1016.3 2.1 79
2020-03-20 08:00:00 17.4 22 Norte 33 Norte 0.4 1015.2 1.3 80
2020-03-20 07:00:00 17.2 13 Noroeste 35 Nordeste 0 1014.4 0.4 78
2020-03-20 06:00:00 17.5 13 Norte 30 Norte 0 1014.2 -0.1 75
2020-03-20 05:00:00 17.4 23 Norte 32 Norte 0 1013.9 -1.1 81
2020-03-20 04:00:00 17.7 26 Norte 35 Norte 0 1014 -1.3 80
2020-03-20 03:00:00 17.9 28 Norte 33 Nordeste 0 1014.3 -1.4 81
2020-03-20 02:00:00 17.9 28 Norte 35 Nordeste 0 1015 -1 82
2020-03-20 01:00:00 18.1 30 Norte 42 Norte 0 1015.3 -0.6 82
2020-03-20 00:00:00 18.1 33 Norte 42 Norte 0 1015.7 0 80
2020-03-19 23:00:00 18.1 28 Norte 50 Norte 0 1016 0.9 84
2020-03-19 22:00:00 18.5 32 Norte 45 Norte 0 1015.9 1.2 81
2020-03-19 21:00:00 18.7 33 Norte 41 Norte 0 1015.7 1.4 81
2020-03-19 20:00:00 18.8 34 Norte 45 Norte 0 1015.1 0.8 80
2020-03-19 19:00:00 19.2 35 Nordeste 46 Norte 0 1014.7 0.7 76
2020-03-19 18:00:00 19.5 33 Norte 46 Norte 0 1014.3 0.3 72
2020-03-19 17:00:00 19.9 32 Norte 48 Norte 0 1014.3 0.1 71
2020-03-19 16:00:00 20.6 35 Norte 48 Norte 0 1014 -0.7 72
2020-03-19 15:00:00 20.6 42 Norte 55 Norte 0 1014 -1 73
2020-03-19 14:00:00 20.9 41 Norte 54 Norte 0 1014.2 -1.1 68
2020-03-19 13:00:00 20.8 43 Norte 54 Norte 0 1014.7 -0.3 70
2020-03-19 12:00:00 21.3 37 Norte 54 Norte 0 1015 0.8 65
2020-03-19 11:00:00 20.8 38 Norte 55 Norte 0 1015.3 1.7 66
2020-03-19 10:00:00 20 43 Norte 52 Norte 0 1015 1.9 67
2020-03-19 09:00:00 20.5 29 Norte 42 Noroeste 0 1014.2 1.2 50
2020-03-19 08:00:00 19.1 33 Norte 50 Norte 0 1013.6 0.6 59
2020-03-19 07:00:00 18.9 24 Noroeste 42 Norte 0 1013.1 0 50
2020-03-19 06:00:00 18.4 26 Norte 59 Norte 0 1013 -0.5 57
2020-03-19 05:00:00 18.3 37 Norte 50 Norte 0 1013 -1 66
2020-03-19 04:00:00 18.3 37 Norte 48 Norte 0 1013.1 -1.2 64
2020-03-19 03:00:00 18.2 36 Norte 50 Norte 0 1013.5 -1.1 62
2020-03-19 02:00:00 18.1 33 Norte 48 Norte 0 1014 -0.9 59
2020-03-19 01:00:00 17.7 28 Norte 39 Norte 0 1014.3 -0.3 64
2020-03-19 00:00:00 17.3 19 Norte 48 Norte 0 1014.6 0.3 64
2020-03-18 23:00:00 17.6 37 Norte 55 Norte 0 1014.9 1.2 70
2020-03-18 22:00:00 17.8 40 Norte 58 Norte 0 1014.6 1.3 72
2020-03-18 21:00:00 17.8 39 Norte 54 Norte 0 1014.3 1 72
2020-03-18 20:00:00 17.3 13 Sur 46 Norte 0 1013.7 -0.1 60
2020-03-18 19:00:00 18.2 39 Norte 52 Norte 0 1013.3 -- 68
2020-03-18 18:00:00 18.3 39 Nordeste 50 Nordeste 0 1013.3 -0.5 67
2020-03-18 17:00:00 18.5 42 Norte 55 Nordeste -- 1013.8 -0.6 64
2020-03-18 16:00:00 19.2 40 Norte 55 Norte 0 -- -- 65
2020-03-18 15:00:00 19.5 46 Norte 55 Norte 0 1013.8 -1.9 63
2020-03-18 14:00:00 19.7 39 Norte 50 Nordeste 0 1014.4 -1.9 60
2020-03-18 13:00:00 19.8 38 Norte 50 Norte 0 1015.1 -1.2 57
2020-03-18 12:00:00 19.8 36 Norte 45 Norte 0 1015.7 -0.3 59
2020-03-18 11:00:00 20 33 Norte 45 Norte 0 1016.3 0.9 54
2020-03-18 10:00:00 19.3 35 Norte 45 Norte 0 1016.3 1.1 56
2020-03-18 09:00:00 17.2 24 Norte 46 Norte 0 1016 1.2 69
2020-03-18 08:00:00 17.1 38 Nordeste 46 Nordeste 0 1015.4 0.7 77
2020-03-18 07:00:00 16.2 22 Norte 41 Norte 0 1015.2 0.2 73
2020-03-18 06:00:00 15.8 23 Noroeste 58 Norte 0 1014.8 -0.6 72
2020-03-18 05:00:00 14.8 21 Noroeste 45 Norte 0 1014.7 -1.4 83
2020-03-18 04:00:00 15.3 21 Noroeste 52 Norte 0.1 1015 -1.4 74
2020-03-18 03:00:00 16.3 28 Norte 46 Norte 0 1015.4 -1.6 72
2020-03-18 02:00:00 15.3 37 Norte 52 Norte 0.3 1016.1 -1.4 84
2020-03-18 01:00:00 16.2 28 Norte 52 Norte 0 1016.4 -1.1 69
2020-03-18 00:00:00 15.5 31 Norte 48 Norte 0 1017 0.1 81
2020-03-17 23:00:00 16 23 Noroeste 52 Norte 0 1017.5 1.1 74
2020-03-17 22:00:00 16.4 35 Norte 59 Norte 0 1017.5 1.5 74
2020-03-17 21:00:00 17.4 39 Norte 50 Norte 0 1016.9 0.9 73
2020-03-17 20:00:00 17.3 34 Norte 46 Norte 0 1016.4 0.3 70
2020-03-17 19:00:00 17.2 36 Norte 45 Norte 0 1016 0 78
2020-03-17 18:00:00 16.9 29 Norte 50 Nordeste 0 1016 -0.2 80
2020-03-17 17:00:00 16.2 26 Norte 46 Norte 0 1016.1 -0.4 86
2020-03-17 16:00:00 16.9 27 Norte 46 Norte 0 1016 -1.3 82
2020-03-17 15:00:00 17.9 32 Norte 50 Nordeste 0 1016.2 -1.6 70
2020-03-17 14:00:00 18.7 31 Norte 42 Norte 0 1016.5 -1.3 68
2020-03-17 13:00:00 18.7 30 Norte 42 Norte 0 1017.3 -0.7 70
2020-03-17 12:00:00 17.2 33 Norte 48 Norte 0 1017.8 0.3 76
2020-03-17 11:00:00 18.6 25 Norte 58 Nordeste 0 1017.8 0.8 60
2020-03-17 10:00:00 16.7 44 Nordeste 55 Nordeste 0 1018 1.3 75
2020-03-17 09:00:00 16.3 26 Noroeste 46 Norte 0 1017.5 1.1 63
2020-03-17 08:00:00 15.5 26 Noroeste 37 Norte 0 1017 1 72
2020-03-17 07:00:00 14.7 21 Noroeste 42 Norte 0.2 1016.7 0.4 78
2020-03-17 06:00:00 15.3 26 Noroeste 45 Nordeste 0 1016.4 0.1 75
2020-03-17 05:00:00 15.7 24 Noroeste 39 Norte 0 1016 -0.8 66
2020-03-17 04:00:00 15.9 32 Norte 55 Norte 0 1016.3 -0.7 78
2020-03-17 03:00:00 17.4 31 Norte 45 Nordeste 0 1016.3 -1.2 65
2020-03-17 02:00:00 17.3 31 Norte 41 Nordeste 0 1016.8 -0.7 70
2020-03-17 01:00:00 16.8 24 Noroeste 50 Norte 0 1017 -0.7 60
2020-03-17 00:00:00 17.3 28 Norte 54 Norte 0 1017.5 0.1 62
2020-03-16 23:00:00 17.8 37 Norte 50 Norte 0 1017.5 0.9 64
2020-03-16 22:00:00 17.8 36 Norte 50 Norte 0 1017.7 1.6 67
2020-03-16 21:00:00 17.9 39 Norte 52 Norte 0 1017.4 1.3 70
2020-03-16 20:00:00 18 40 Norte 48 Norte 0 1016.6 0.2 71
2020-03-16 19:00:00 18.3 38 Norte 46 Norte 0 1016.1 -0.3 70
2020-03-16 18:00:00 18.8 34 Norte 42 Norte 0 1016.1 -0.5 68
2020-03-16 17:00:00 19.3 29 Norte 41 Norte 0 1016.4 -0.3 68
2020-03-16 16:00:00 19.1 32 Norte 45 Nordeste 0 1016.4 -1.2 67
2020-03-16 15:00:00 18.9 30 Norte 59 Norte 0 1016.6 -1.5 74
2020-03-16 14:00:00 20.7 36 Norte 46 Norte 0 1016.7 -1.6 62
2020-03-16 13:00:00 20.9 33 Norte 41 Norte 0 1017.6 -0.3 61
2020-03-16 12:00:00 20.3 31 Norte 41 Norte 0 1018.1 0.8 61
2020-03-16 11:00:00 19.5 28 Norte 48 Norte 0 1018.3 1.4 62
2020-03-16 10:00:00 19.1 40 Norte 52 Norte 0 1017.9 1.7 66
2020-03-16 09:00:00 18.6 37 Norte 42 Norte 0 1017.3 1.3 70
2020-03-16 08:00:00 17.9 28 Norte 48 Norte 0 1016.9 1.5 62
2020-03-16 07:00:00 17.4 21 Norte 48 Norte 0 1016.2 0.5 66
2020-03-16 06:00:00 17.3 42 Norte 58 Norte 0 1016 -0.2 73
2020-03-16 05:00:00 17.6 30 Norte 45 Norte 0 1015.4 -1.3 66
2020-03-16 04:00:00 17.4 26 Norte 37 Norte 0 1015.7 -1.1 67
2020-03-16 03:00:00 17.8 25 Norte 37 Norte 0 1016.2 -0.6 70
2020-03-16 02:00:00 17.7 19 Noroeste 35 Norte 0 1016.7 -0.1 64
2020-03-16 01:00:00 17.7 27 Norte 46 Norte 0 1016.8 0.3 67
2020-03-16 00:00:00 17.9 36 Norte 54 Nordeste 0 1016.8 0.7 71
2020-03-15 23:00:00 18 40 Norte 52 Norte 0 1016.8 1.1 70
2020-03-15 22:00:00 18.3 43 Norte 50 Norte 0 1016.5 1.4 71
2020-03-15 21:00:00 18.2 32 Norte 45 Norte 0 1016.1 1.4 68
2020-03-15 20:00:00 18.1 26 Norte 35 Norte 0 1015.7 1 63
2020-03-15 19:00:00 18.3 26 Norte 46 Norte 0 1015.1 0.2 58
2020-03-15 18:00:00 18.7 33 Norte 45 Norte 0 1014.7 -0.7 66
2020-03-15 17:00:00 19.5 31 Norte 42 Norte 0 1014.7 -0.8 56
2020-03-15 16:00:00 19.4 29 Norte 39 Norte 0 1014.9 -1.3 60
2020-03-15 15:00:00 17.5 27 Norte 61 Norte 0.1 1015.4 -1 80
2020-03-15 14:00:00 19.5 27 Norte 35 Norte 0 1015.5 -0.9 63
2020-03-15 13:00:00 19.8 27 Norte 41 Norte 0 1016.2 -0.1 61
2020-03-15 12:00:00 20.2 31 Norte 41 Norte 0 1016.4 0.8 60
2020-03-15 11:00:00 17.4 19 Norte 41 Nordeste 0.2 1016.4 1.4 85
2020-03-15 10:00:00 16.9 22 Nordeste 39 Norte 0.4 1016.3 1.8 83
2020-03-15 09:00:00 18.1 15 Norte 28 Norte 0 1015.6 1.4 62
2020-03-15 08:00:00 17.1 18 Norte 35 Norte 0 1015 0.7 63
2020-03-15 07:00:00 15.6 18 Oeste 50 Norte 0 1014.5 0.5 71
2020-03-15 06:00:00 16.4 42 Norte 54 Nordeste 0 1014.2 -0.2 76
2020-03-15 05:00:00 16.2 33 Norte 50 Norte 0 1014.3 -0.5 77
2020-03-15 04:00:00 16.4 10 Norte 32 Norte 0 1014 -1.1 74
2020-03-15 03:00:00 15.3 14 Oeste 45 Norte 0 1014.4 -1 79
2020-03-15 02:00:00 17.4 22 Norte 39 Norte 0 1014.8 -0.6 66
2020-03-15 01:00:00 17.3 20 Norte 42 Norte 0 1015.1 -0.4 68
2020-03-15 00:00:00 17.8 34 Norte 45 Nordeste 0 1015.4 0.1 70
2020-03-14 23:00:00 18.1 28 Norte 37 Norte 0 1015.4 0.6 72
2020-03-14 22:00:00 18.1 26 Norte 33 Norte 0 1015.5 0.9 66
2020-03-14 21:00:00 18.2 24 Norte 33 Norte 0 1015.3 0.8 60
2020-03-14 20:00:00 18.3 24 Norte 33 Norte 0 1014.8 0.6 68
2020-03-14 19:00:00 18.5 25 Norte 32 Norte 0 1014.6 0.3 66
2020-03-14 18:00:00 19 18 Norte 30 Nordeste 0 1014.5 -0.1 67
2020-03-14 17:00:00 19.2 21 Norte 26 Norte 0 1014.2 -0.9 68
2020-03-14 16:00:00 19.4 18 Norte 28 Nordeste 0 1014.3 -1.4 66
2020-03-14 15:00:00 19.4 21 Nordeste 30 Norte 0 1014.6 -1.4 67
2020-03-14 14:00:00 19.5 22 Nordeste 30 Norte 0 1015.1 -1 66
2020-03-14 13:00:00 20.2 22 Norte 28 Norte 0 1015.7 -0.3 64
2020-03-14 12:00:00 20.5 23 Norte 30 Norte 0 1016 0.5 64
2020-03-14 11:00:00 19.2 22 Norte 33 Norte 0 1016.1 1 67
2020-03-14 10:00:00 18.5 24 Norte 32 Norte 0 1016 1 73
2020-03-14 09:00:00 18.8 27 Norte 33 Norte 0 1015.5 0.7 71
2020-03-14 08:00:00 18.3 21 Norte 28 Norte 0 1015.1 0.5 74
2020-03-14 07:00:00 18.2 22 Norte 28 Norte 0 1015 0 73
2020-03-14 06:00:00 18.2 18 Norte 28 Norte 0 1014.8 -0.7 73
2020-03-14 05:00:00 18.3 19 Norte 26 Norte 0 1014.6 -1.3 76
2020-03-14 04:00:00 18.3 17 Norte 30 Norte 0 1015 -1.4 75
2020-03-14 03:00:00 18.4 22 Norte 30 Norte 0 1015.5 -1.4 75
2020-03-14 02:00:00 18.4 21 Norte 28 Norte 0 1015.9 -1.3 75
2020-03-14 01:00:00 18.7 24 Norte 32 Norte 0 1016.4 -0.7 76
2020-03-14 00:00:00 18.4 17 Norte 26 Norte 0 1016.9 0.5 73
2020-03-13 23:00:00 18.7 21 Norte 30 Norte 0 1017.2 1.4 71
2020-03-13 22:00:00 18.8 22 Norte 30 Norte 0 1017.1 1.5 70
2020-03-13 21:00:00 18.8 25 Norte 30 Norte 0 1016.4 1.1 73
2020-03-13 20:00:00 18.9 24 Norte 33 Norte 0 1015.8 0.4 72
2020-03-13 19:00:00 19.1 25 Norte 37 Norte 0 1015.6 0.1 72
2020-03-13 18:00:00 19.5 28 Norte 35 Norte 0 1015.3 -0.3 74
2020-03-13 17:00:00 19.9 22 Norte 28 Norte 0 1015.4 -0.8 71
2020-03-13 16:00:00 20.1 23 Norte 37 Norte 0 1015.5 -1.4 71
2020-03-13 15:00:00 20.5 24 Norte 30 Norte 0 1015.6 -1.6 66
2020-03-13 14:00:00 20.4 22 Norte 32 Norte 0 1016.2 -1.1 68
2020-03-13 13:00:00 20.6 22 Norte 28 Norte 0 1016.9 -0.2 67
2020-03-13 12:00:00 20.3 16 Norte 28 Norte 0 1017.2 0.6 64
2020-03-13 11:00:00 19.5 24 Norte 30 Norte 0 1017.3 1.3 69
2020-03-13 10:00:00 19.3 18 Norte 26 Norte 0 1017.1 1.4 65
2020-03-13 09:00:00 18.7 17 Norte 30 Norte 0 1016.6 1.3 69
2020-03-13 08:00:00 18.5 20 Norte 30 Norte 0 1016 0.9 70
2020-03-13 07:00:00 18.2 17 Noroeste 30 Noroeste 0 1015.7 0.6 69
2020-03-13 06:00:00 18.1 16 Noroeste 28 Noroeste 0 1015.3 0 68
2020-03-13 05:00:00 18.1 16 Noroeste 30 Noroeste 0 1015.1 -0.5 70
2020-03-13 04:00:00 18.1 18 Noroeste 30 Noroeste 0 1015.1 -0.8 71
2020-03-13 03:00:00 18.1 14 Noroeste 28 Noroeste 0 1015.3 -0.7 72
2020-03-13 02:00:00 18.1 19 Noroeste 28 Noroeste 0 1015.6 -0.6 72
2020-03-13 01:00:00 18.2 16 Noroeste 24 Noroeste 0 1015.9 0 73
2020-03-13 00:00:00 18.3 16 Noroeste 26 Noroeste 0 1016 0.9 73
2020-03-12 23:00:00 18.3 14 Norte 28 Norte 0 1016.2 1.4 75
2020-03-12 22:00:00 18.6 21 Norte 30 Norte 0 1015.9 1.4 77
2020-03-12 21:00:00 18.7 21 Norte 30 Norte 0 1015.1 0.7 77
2020-03-12 20:00:00 18.9 26 Nordeste 33 Nordeste 0 1014.8 0.7 77
2020-03-12 19:00:00 19.4 21 Norte 30 Nordeste 0 1014.5 0.6 76
2020-03-12 18:00:00 19.7 22 Norte 30 Norte 0 1014.4 0.2 76
2020-03-12 17:00:00 20.2 23 Norte 30 Norte 0 1014.1 -0.6 75
2020-03-12 16:00:00 20.9 22 Norte 28 Nordeste 0 1013.9 -1.2 72
2020-03-12 15:00:00 21.7 19 Norte 26 Norte 0 1014.2 -1.4 68
2020-03-12 14:00:00 21.8 17 Norte 26 Norte 0 1014.7 -0.8 67
2020-03-12 13:00:00 21.5 21 Norte 28 Norte 0 1015.1 0.1 70
2020-03-12 12:00:00 21.5 17 Norte 32 Nordeste 0 1015.6 1 70
2020-03-12 11:00:00 20.8 22 Norte 30 Nordeste 0 1015.5 1.3 73
2020-03-12 10:00:00 20.4 18 Norte 24 Norte 0 1015 1.6 73
2020-03-12 09:00:00 18.3 17 Norte 24 Norte 0 1014.6 1.6 79
2020-03-12 08:00:00 16.4 13 Noroeste 21 Noroeste 0 1014.2 1.4 85
2020-03-12 07:00:00 16.4 13 Noroeste 18 Noroeste 0 1013.4 0.4 84
2020-03-12 06:00:00 17 15 Noroeste 24 Noroeste 0 1013 0 82
2020-03-12 05:00:00 17 14 Noroeste 21 Noroeste 0 1012.8 -1.2 83
2020-03-12 04:00:00 17 13 Noroeste 24 Noroeste 0 1013 -1.5 84
2020-03-12 03:00:00 17.2 18 Noroeste 26 Noroeste 0 1013 -2 81
2020-03-12 02:00:00 17.5 13 Noroeste 21 Noroeste 0 1014 -0.8 81
2020-03-12 01:00:00 17.7 15 Noroeste 22 Noroeste 0 1014.5 -0.1 81
2020-03-12 00:00:00 17.8 15 Noroeste 22 Noroeste 0 1015 0.8 82
2020-03-11 23:00:00 17.8 14 Noroeste 22 Noroeste 0 1014.8 1.3 82
2020-03-11 22:00:00 18 14 Noroeste 21 Noroeste 0 1014.6 1.4 82
2020-03-11 21:00:00 18.4 13 Norte 22 Norte 0 1014.2 1.2 83
2020-03-11 20:00:00 18.6 17 Norte 22 Norte 0 1013.5 0.5 83
2020-03-11 19:00:00 19.2 15 Norte 21 Norte 0 1013.2 0.1 81
2020-03-11 18:00:00 19.8 14 Norte 18 Norte 0 1013 -0.3 78
2020-03-11 17:00:00 20.4 13 Norte 17 Norte 0 1013 -0.7 75
2020-03-11 16:00:00 21.1 14 Norte 18 Norte 0 1013.1 -1.2 73
2020-03-11 15:00:00 21.4 14 Norte 21 Norte 0 1013.3 -1.5 72
2020-03-11 14:00:00 21.2 16 Norte 18 Norte 0 1013.7 -1.3 71
2020-03-11 13:00:00 21 15 Norte 21 Norte 0 1014.3 -0.4 71
2020-03-11 12:00:00 21.2 15 Norte 21 Norte 0 1014.8 0.4 69
2020-03-11 11:00:00 20.6 13 Norte 18 Norte 0 1015 1.1 72
2020-03-11 10:00:00 19.5 11 Norte 18 Norte 0 1014.7 1.3 74
2020-03-11 09:00:00 17.8 13 Noroeste 18 Norte 0 1014.4 1 81
2020-03-11 08:00:00 16.3 13 Oeste 18 Oeste 0 1013.9 0.8 85
2020-03-11 07:00:00 16.5 11 Noroeste 17 Noroeste 0 1013.4 -0.4 85
2020-03-11 06:00:00 16.2 10 Oeste 18 Noroeste 0 1013.4 -0.9 85
2020-03-11 05:00:00 16.3 11 Noroeste 17 Oeste 0 1013.1 -1.7 85
2020-03-11 04:00:00 16.1 10 Oeste 17 Noroeste 0 1013.8 -1.8 83
2020-03-11 03:00:00 17 12 Noroeste 22 Noroeste 0 1014.3 -1.5 81
2020-03-11 02:00:00 17.1 14 Noroeste 21 Noroeste 0 1014.8 -1.5 81
2020-03-11 01:00:00 17.2 13 Noroeste 22 Noroeste 0 1015.6 -0.4 81
2020-03-11 00:00:00 17.3 15 Noroeste 22 Noroeste 0 1015.8 0.4 81
2020-03-10 23:00:00 17.8 12 Noroeste 17 Noroeste 0 1016.3 1.2 81
2020-03-10 22:00:00 18 11 Noroeste 21 Noroeste 0 1016 0.9 81
2020-03-10 21:00:00 18.1 14 Noroeste 22 Norte 0 1015.4 0.2 79
2020-03-10 20:00:00 18.7 14 Norte 22 Norte 0 1015.1 -0.2 79
2020-03-10 19:00:00 19.2 13 Norte 18 Norte 0 1015.1 -0.6 76
2020-03-10 18:00:00 19.8 13 Norte 18 Norte 0 1015.2 -0.9 75
2020-03-10 17:00:00 20.3 14 Norte 18 Norte 0 1015.3 -1.3 72
2020-03-10 16:00:00 20.6 15 Norte 21 Norte 0 1015.7 -1.2 72
2020-03-10 15:00:00 21.2 15 Norte 21 Norte 0 1016.1 -1.4 72
2020-03-10 14:00:00 21.4 14 Norte 22 Norte 0 1016.6 -1.2 70
2020-03-10 13:00:00 21.3 17 Norte 26 Norte 0 1016.9 -0.9 70
2020-03-10 12:00:00 21.2 20 Norte 26 Nordeste 0 1017.5 0 71
2020-03-10 11:00:00 20.6 21 Norte 26 Norte 0 1017.8 0.8 73
2020-03-10 10:00:00 20.1 21 Norte 26 Norte 0 1017.8 1 74
2020-03-10 09:00:00 18.9 16 Norte 24 Norte 0 1017.5 1.2 76
2020-03-10 08:00:00 16.9 15 Noroeste 28 Norte 0 1017 0.6 70
2020-03-10 07:00:00 17.1 15 Noroeste 24 Noroeste 0 1016.8 0.2 76
2020-03-10 06:00:00 17.3 16 Norte 22 Norte 0 1016.3 -1 49
2020-03-10 05:00:00 17.4 12 Norte 18 Norte 0 1016.4 -1.4 63
2020-03-10 04:00:00 17.3 13 Norte 24 Noroeste 0 1016.6 -1.5 67
2020-03-10 03:00:00 17 16 Noroeste 21 Norte 0 1017.3 -1.2 69
2020-03-10 02:00:00 17 13 Noroeste 21 Noroeste 0 1017.8 -0.8 83
2020-03-10 01:00:00 17.3 15 Noroeste 22 Noroeste 0 1018.1 -0.7 82
2020-03-10 00:00:00 17.4 13 Noroeste 18 Noroeste 0 1018.5 0.1 80
2020-03-09 23:00:00 17.9 14 Noroeste 22 Noroeste 0 1018.6 0.5 78
2020-03-09 22:00:00 18.3 15 Noroeste 22 Noroeste 0 1018.8 1 76
2020-03-09 21:00:00 18.8 17 Noroeste 28 Norte 0 1018.4 0.7 75
2020-03-09 20:00:00 19 19 Norte 30 Norte 0 1018.1 0.2 79
2020-03-09 19:00:00 19.1 18 Norte 22 Norte 0 1017.8 -0.3 80
2020-03-09 18:00:00 19.7 17 Norte 30 Norte 0 1017.7 -1.1 76
2020-03-09 17:00:00 20.2 18 Norte 28 Norte 0 1017.9 -1.1 75
2020-03-09 16:00:00 20.8 18 Norte 24 Norte 0 1018.1 -1.7 72
2020-03-09 15:00:00 21.4 19 Norte 28 Norte 0 1018.8 -1.8 70
2020-03-09 14:00:00 21.6 21 Norte 28 Nordeste 0 1019 -1.8 68
2020-03-09 13:00:00 21.8 21 Norte 28 Norte 0 1019.8 -1 67
2020-03-09 12:00:00 21.6 21 Norte 26 Norte 0 1020.6 0.3 66
2020-03-09 11:00:00 21.4 20 Norte 26 Norte 0 1020.8 1.3 65
2020-03-09 10:00:00 20.4 18 Norte 30 Norte 0 1020.8 1.9 68
2020-03-09 09:00:00 19 15 Norte 28 Noroeste 0 1020.3 2 68
2020-03-09 08:00:00 17.9 14 Noroeste 28 Noroeste 0 1019.5 1.7 72
2020-03-09 07:00:00 17.6 17 Noroeste 28 Noroeste 0 1018.9 1.2 73
2020-03-09 06:00:00 17.4 17 Noroeste 30 Noroeste 0 1018.3 -0.2 76
2020-03-09 05:00:00 17.3 18 Noroeste 26 Norte 0 1017.8 -1.3 70
2020-03-09 04:00:00 17.6 16 Noroeste 24 Noroeste 0 1017.7 -2 73
2020-03-09 03:00:00 17.8 17 Noroeste 26 Norte 0 1018.5 -1 72
2020-03-09 02:00:00 18.1 15 Noroeste 32 Noroeste 0 1019.1 -0.1 74
2020-03-09 01:00:00 18.9 18 Norte 26 Norte 0 1019.7 1 76
2020-03-09 00:00:00 18.8 18 Noroeste 28 Noroeste 0 1019.5 1.2 73
2020-03-08 23:00:00 18.8 20 Noroeste 30 Noroeste 0 1019.2 1.6 73
2020-03-08 22:00:00 19 16 Noroeste 32 Norte 0 1018.7 1.7 73
2020-03-08 21:00:00 19.1 17 Norte 30 Norte 0 1018.3 1.9 75
2020-03-08 20:00:00 19 22 Norte 32 Norte 0 1017.6 1.5 80
2020-03-08 19:00:00 19.3 23 Norte 32 Norte 0 1017 1.1 81
2020-03-08 18:00:00 19.8 22 Norte 30 Norte 0 1016.4 0 76
2020-03-08 17:00:00 20.4 21 Norte 26 Norte 0 1016.1 -0.8 72
2020-03-08 16:00:00 21.2 21 Norte 28 Norte 0 1015.9 -1.8 67
2020-03-08 15:00:00 21.5 18 Norte 26 Norte 0 1016.4 -1.6 66
2020-03-08 14:00:00 21.8 21 Norte 28 Norte 0 1016.9 -1.3 65
2020-03-08 13:00:00 21.9 21 Norte 28 Norte 0 1017.7 -0.2 66
2020-03-08 12:00:00 21.8 17 Norte 30 Norte 0 1018 1.1 62
2020-03-08 11:00:00 20.7 24 Norte 33 Nordeste 0 1018.2 2 66
2020-03-08 10:00:00 19.6 20 Norte 30 Norte 0 1017.9 2.5 70
2020-03-08 09:00:00 19.1 18 Noroeste 30 Noroeste 0 1016.9 1.5 65
2020-03-08 08:00:00 18.2 17 Noroeste 26 Noroeste 0 1016.2 1.2 64
2020-03-08 07:00:00 18.1 17 Noroeste 28 Noroeste 0 1015.4 0.5 64
2020-03-08 06:00:00 18.1 18 Noroeste 30 Norte 0 1015.4 0 63
2020-03-08 05:00:00 18.1 17 Noroeste 30 Noroeste 0 1015 -0.8 64
2020-03-08 04:00:00 18.3 20 Noroeste 30 Noroeste 0 1014.9 -1.1 66
2020-03-08 03:00:00 18.3 22 Noroeste 30 Norte 0 1015.4 -0.8 66
2020-03-08 02:00:00 18.4 20 Noroeste 30 Norte 0 1015.8 -0.8 65
2020-03-08 01:00:00 18.4 20 Noroeste 28 Noroeste 0 1016 -0.3 64
2020-03-08 00:00:00 18.4 18 Norte 35 Norte 0 1016.2 0.2 65
2020-03-07 23:00:00 18.5 18 Noroeste 33 Norte 0 1016.6 0.8 64
2020-03-07 22:00:00 18.6 21 Norte 33 Norte 0 1016.3 1.1 67
2020-03-07 21:00:00 18.6 19 Noroeste 33 Norte 0 1016 1.1 62
2020-03-07 20:00:00 18.6 20 Norte 30 Norte 0 1015.8 0.9 68
2020-03-07 19:00:00 18.6 22 Norte 33 Norte 0 1015.2 0.3 64
2020-03-07 18:00:00 19 25 Norte 32 Norte 0 1014.9 -0.4 67
2020-03-07 17:00:00 19.4 26 Norte 37 Norte 0 1014.9 -1 63
2020-03-07 16:00:00 20.3 20 Norte 28 Norte 0 1014.9 -2.1 62
2020-03-07 15:00:00 20.7 20 Norte 32 Norte 0 1015.3 -2.5 58
2020-03-07 14:00:00 20.5 25 Norte 35 Nordeste 0 1015.9 -2.4 58
2020-03-07 13:00:00 20.8 23 Norte 35 Nordeste 0 1017 -1.3 57
2020-03-07 12:00:00 19.4 23 Norte 33 Norte 0 1017.8 -0.4 64
2020-03-07 11:00:00 19 21 Noroeste 32 Norte 0 1018.3 0.9 62
2020-03-07 10:00:00 18.6 18 Norte 30 Norte 0 1018.3 1.3 60
2020-03-07 09:00:00 18.3 21 Norte 33 Norte 0 1018.2 1.7 64
2020-03-07 08:00:00 17.7 19 Noroeste 35 Noroeste 0 1017.4 1 66
2020-03-07 07:00:00 18.1 28 Norte 35 Norte 0 1017 0.4 63
2020-03-07 06:00:00 17.7 22 Noroeste 33 Norte 0 1016.5 -0.3 62
2020-03-07 05:00:00 17.9 24 Norte 32 Norte 0 1016.4 -1.7 71
2020-03-07 04:00:00 17.6 19 Noroeste 32 Oeste 0 1016.6 -1.8 64
2020-03-07 03:00:00 17 24 Oeste 32 Noroeste 0 1016.8 -2.2 59
2020-03-07 02:00:00 17.4 20 Noroeste 33 Oeste 0 1018.1 -1.2 60
2020-03-07 01:00:00 17 19 Noroeste 39 Norte 0 1018.4 -1 62
2020-03-07 00:00:00 18 25 Norte 46 Nordeste 0 1019 -0.1 63
2020-03-06 23:00:00 17.9 20 Noroeste 30 Noroeste 0 1019.3 0.4 59
2020-03-06 22:00:00 17.9 16 Noroeste 30 Noroeste 0 1019.4 0.6 59
2020-03-06 21:00:00 18.1 19 Noroeste 33 Noroeste 0 1019.1 0.4 60
2020-03-06 20:00:00 18.2 21 Noroeste 32 Noroeste 0 1018.9 -0.1 60
2020-03-06 19:00:00 18.3 24 Norte 45 Nordeste 0 1018.8 -0.5 65
2020-03-06 18:00:00 18.7 33 Nordeste 45 Nordeste 0 1018.7 -1 66
2020-03-06 17:00:00 19.2 29 Norte 39 Norte 0 1019 -1.3 69
2020-03-06 16:00:00 20.3 18 Norte 28 Norte 0 1019.3 -2 62
2020-03-06 15:00:00 19.6 20 Norte 45 Norte 0 1019.7 -2.2 63
2020-03-06 14:00:00 19.4 31 Norte 46 Norte 0 1020.3 -1.8 65
2020-03-06 13:00:00 19.4 24 Norte 42 Norte 0 1021.3 -0.5 64
2020-03-06 12:00:00 18.9 30 Norte 39 Norte 0 1021.9 0.6 66
2020-03-06 11:00:00 18.3 24 Norte 42 Nordeste 0 1022.1 1.8 66
2020-03-06 10:00:00 18 30 Norte 45 Norte 0 1021.8 2.2 71
2020-03-06 09:00:00 17.5 23 Norte 41 Nordeste 0 1021.3 2.4 74
2020-03-06 08:00:00 17.2 26 Norte 42 Norte 0 1020.3 1.2 73
2020-03-06 07:00:00 17.6 32 Norte 48 Norte 0 1019.6 0.3 78
2020-03-06 06:00:00 16.6 25 Noroeste 46 Norte 0 1018.9 -1.1 90
2020-03-06 05:00:00 17.9 34 Norte 45 Norte 0 1019.1 -1.3 88
2020-03-06 04:00:00 17.9 19 Norte 35 Norte 0 1019.3 -1.2 85
2020-03-06 03:00:00 17.1 22 Noroeste 45 Noroeste 1.3 1020 -1.2 95
2020-03-06 02:00:00 18.1 35 Norte 45 Norte 0 1020.4 -1.5 91
2020-03-06 01:00:00 19.2 37 Norte 45 Norte 0 1020.5 -1.2 78
2020-03-06 00:00:00 18.8 18 Norte 35 Noroeste 0.1 1021.2 0 79
2020-03-05 23:00:00 18.8 28 Norte 41 Norte 0 1021.9 1.3 81
2020-03-05 22:00:00 19.3 21 Norte 45 Norte 0 1021.7 2 73
2020-03-05 21:00:00 19.6 28 Norte 45 Norte 0 1021.2 1.8 68
2020-03-05 20:00:00 19 31 Norte 39 Norte 0 1020.6 1.6 74
2020-03-05 19:00:00 19.2 27 Norte 42 Nordeste 0 1019.7 0.9 74
2020-03-05 18:00:00 19.5 35 Norte 41 Norte 0 1019.4 0.3 77
2020-03-05 17:00:00 19.8 27 Norte 33 Norte 0 1019 -0.4 72
2020-03-05 16:00:00 19.8 28 Norte 39 Nordeste 0 1018.8 -1.3 76
2020-03-05 15:00:00 20.3 29 Norte 41 Nordeste 0 1019.1 -1.3 70
2020-03-05 14:00:00 20.7 32 Norte 41 Norte 0 1019.4 -0.9 69
2020-03-05 13:00:00 20.8 31 Norte 42 Norte 0 1020.1 0 70
2020-03-05 12:00:00 21 32 Norte 48 Norte 0 1020.4 0.9 69
2020-03-05 11:00:00 20 34 Norte 41 Norte 0 1020.3 1.5 72
2020-03-05 10:00:00 19.4 25 Norte 30 Norte 0 1020.1 1.7 75
2020-03-05 09:00:00 19 14 Norte 24 Noroeste 0 1019.5 1.7 73
2020-03-05 08:00:00 18.4 17 Noroeste 30 Norte 0 1018.8 1.2 73
2020-03-05 07:00:00 18.5 19 Noroeste 32 Norte 0 1018.4 0.7 75
2020-03-05 06:00:00 18.6 23 Norte 33 Norte 0 1017.8 -0.1 78
2020-03-05 05:00:00 18.6 17 Norte 37 Norte 0 1017.6 -0.8 78
2020-03-05 04:00:00 18.8 28 Norte 35 Norte 0 1017.7 -0.6 81
2020-03-05 03:00:00 18.6 22 Norte 33 Norte 0 1017.9 -1 79
2020-03-05 02:00:00 18.8 23 Norte 30 Norte 0 1018.4 -0.5 82
2020-03-05 01:00:00 18.8 23 Norte 30 Norte 0 1018.3 -0.9 82
2020-03-05 00:00:00 18.9 20 Norte 28 Norte 0 1018.9 0.3 83